sensor_id;sensor_type;location;lat;lon;timestamp;pressure;altitude;pressure_sealevel;temperature;humidity
78615;BME280;67937;52.488;20.952;2023-05-07T00:00:55;101318.77;;;6.43;75.90
78615;BME280;67937;52.488;20.952;2023-05-07T00:03:23;101323.56;;;6.42;75.92
78615;BME280;67937;52.488;20.952;2023-05-07T00:05:52;101323.70;;;6.43;75.91
78615;BME280;67937;52.488;20.952;2023-05-07T00:08:20;101325.27;;;6.43;75.77
78615;BME280;67937;52.488;20.952;2023-05-07T00:10:48;101323.02;;;6.43;75.90
78615;BME280;67937;52.488;20.952;2023-05-07T00:13:16;101325.52;;;6.42;75.95
78615;BME280;67937;52.488;20.952;2023-05-07T00:15:44;101330.02;;;6.43;75.83
78615;BME280;67937;52.488;20.952;2023-05-07T00:18:12;101332.69;;;6.46;75.73
78615;BME280;67937;52.488;20.952;2023-05-07T00:20:40;101329.28;;;6.43;75.79
78615;BME280;67937;52.488;20.952;2023-05-07T00:23:09;101335.13;;;6.42;75.74
78615;BME280;67937;52.488;20.952;2023-05-07T00:25:37;101331.36;;;6.40;76.08
78615;BME280;67937;52.488;20.952;2023-05-07T00:28:05;101333.09;;;6.40;75.86
78615;BME280;67937;52.488;20.952;2023-05-07T00:30:33;101333.56;;;6.42;75.69
78615;BME280;67937;52.488;20.952;2023-05-07T00:33:01;101333.61;;;6.41;75.65
78615;BME280;67937;52.488;20.952;2023-05-07T00:35:29;101336.16;;;6.39;76.07
78615;BME280;67937;52.488;20.952;2023-05-07T00:37:57;101338.07;;;6.39;75.75
78615;BME280;67937;52.488;20.952;2023-05-07T00:40:25;101339.77;;;6.40;76.12
78615;BME280;67937;52.488;20.952;2023-05-07T00:42:53;101342.42;;;6.33;76.22
78615;BME280;67937;52.488;20.952;2023-05-07T00:45:27;101340.23;;;6.35;76.13
78615;BME280;67937;52.488;20.952;2023-05-07T00:47:57;101343.49;;;6.32;76.00
78615;BME280;67937;52.488;20.952;2023-05-07T00:50:26;101347.44;;;6.34;76.10
78615;BME280;67937;52.488;20.952;2023-05-07T00:52:55;101351.77;;;6.31;75.93
78615;BME280;67937;52.488;20.952;2023-05-07T00:55:23;101356.34;;;6.31;75.75
78615;BME280;67937;52.488;20.952;2023-05-07T00:57:52;101363.52;;;6.31;75.97
78615;BME280;67937;52.488;20.952;2023-05-07T01:00:20;101363.54;;;6.31;76.01
78615;BME280;67937;52.488;20.952;2023-05-07T01:02:48;101366.73;;;6.30;76.10
78615;BME280;67937;52.488;20.952;2023-05-07T01:05:17;101370.25;;;6.29;76.39
78615;BME280;67937;52.488;20.952;2023-05-07T01:07:47;101371.91;;;6.24;76.79
78615;BME280;67937;52.488;20.952;2023-05-07T01:10:17;101372.91;;;6.25;76.54
78615;BME280;67937;52.488;20.952;2023-05-07T01:12:46;101371.71;;;6.28;76.57
78615;BME280;67937;52.488;20.952;2023-05-07T01:15:15;101369.58;;;6.25;76.77
78615;BME280;67937;52.488;20.952;2023-05-07T01:17:44;101376.16;;;6.19;76.82
78615;BME280;67937;52.488;20.952;2023-05-07T01:20:12;101378.15;;;6.25;77.08
78615;BME280;67937;52.488;20.952;2023-05-07T01:22:43;101381.67;;;6.21;77.18
78615;BME280;67937;52.488;20.952;2023-05-07T01:25:11;101385.63;;;6.15;77.47
78615;BME280;67937;52.488;20.952;2023-05-07T01:27:40;101385.45;;;6.11;77.39
78615;BME280;67937;52.488;20.952;2023-05-07T01:30:08;101385.54;;;6.09;77.38
78615;BME280;67937;52.488;20.952;2023-05-07T01:33:08;101384.82;;;6.10;77.36
78615;BME280;67937;52.488;20.952;2023-05-07T01:35:37;101384.02;;;6.12;77.25
78615;BME280;67937;52.488;20.952;2023-05-07T01:38:07;101381.33;;;6.17;77.40
78615;BME280;67937;52.488;20.952;2023-05-07T01:40:35;101388.91;;;6.24;77.47
78615;BME280;67937;52.488;20.952;2023-05-07T01:43:04;101386.83;;;6.12;77.73
78615;BME280;67937;52.488;20.952;2023-05-07T01:45:34;101387.91;;;6.03;77.90
78615;BME280;67937;52.488;20.952;2023-05-07T01:48:03;101381.55;;;6.05;77.65
78615;BME280;67937;52.488;20.952;2023-05-07T01:50:31;101380.03;;;6.03;77.76
78615;BME280;67937;52.488;20.952;2023-05-07T01:53:01;101386.12;;;6.04;77.78
78615;BME280;67937;52.488;20.952;2023-05-07T01:55:29;101382.13;;;5.99;77.77
78615;BME280;67937;52.488;20.952;2023-05-07T01:57:57;101384.05;;;5.96;77.93
78615;BME280;67937;52.488;20.952;2023-05-07T02:00:25;101385.20;;;5.98;77.74
78615;BME280;67937;52.488;20.952;2023-05-07T02:02:53;101390.19;;;5.95;77.77
78615;BME280;67937;52.488;20.952;2023-05-07T02:05:21;101393.67;;;5.96;77.84
78615;BME280;67937;52.488;20.952;2023-05-07T02:07:49;101390.15;;;5.92;77.78
78615;BME280;67937;52.488;20.952;2023-05-07T02:10:17;101385.36;;;5.93;77.64
78615;BME280;67937;52.488;20.952;2023-05-07T02:12:45;101383.08;;;5.86;77.58
78615;BME280;67937;52.488;20.952;2023-05-07T02:15:14;101386.62;;;5.92;77.35
78615;BME280;67937;52.488;20.952;2023-05-07T02:18:03;101382.33;;;5.87;77.47
78615;BME280;67937;52.488;20.952;2023-05-07T02:20:32;101382.27;;;5.84;77.68
78615;BME280;67937;52.488;20.952;2023-05-07T02:23:00;101383.21;;;5.87;77.58
78615;BME280;67937;52.488;20.952;2023-05-07T02:25:28;101384.89;;;5.88;77.69
78615;BME280;67937;52.488;20.952;2023-05-07T02:27:56;101386.69;;;5.83;77.73
78615;BME280;67937;52.488;20.952;2023-05-07T02:30:25;101389.27;;;5.92;77.62
78615;BME280;67937;52.488;20.952;2023-05-07T02:32:53;101387.32;;;5.84;77.74
78615;BME280;67937;52.488;20.952;2023-05-07T02:35:21;101390.50;;;5.88;77.66
78615;BME280;67937;52.488;20.952;2023-05-07T02:37:49;101389.39;;;5.85;77.74
78615;BME280;67937;52.488;20.952;2023-05-07T02:40:17;101389.82;;;5.83;77.74
78615;BME280;67937;52.488;20.952;2023-05-07T02:42:45;101390.38;;;5.82;77.44
78615;BME280;67937;52.488;20.952;2023-05-07T02:45:13;101390.08;;;5.86;77.29
78615;BME280;67937;52.488;20.952;2023-05-07T02:47:42;101389.13;;;5.87;77.22
78615;BME280;67937;52.488;20.952;2023-05-07T02:50:10;101390.66;;;5.88;77.34
78615;BME280;67937;52.488;20.952;2023-05-07T02:52:38;101391.05;;;5.87;77.22
78615;BME280;67937;52.488;20.952;2023-05-07T02:55:06;101395.06;;;5.88;77.09
78615;BME280;67937;52.488;20.952;2023-05-07T02:57:34;101397.27;;;5.89;77.06
78615;BME280;67937;52.488;20.952;2023-05-07T03:00:18;101398.55;;;5.92;76.88
78615;BME280;67937;52.488;20.952;2023-05-07T03:02:47;101403.99;;;5.92;77.23
78615;BME280;67937;52.488;20.952;2023-05-07T03:05:15;101402.26;;;5.92;77.12
78615;BME280;67937;52.488;20.952;2023-05-07T03:07:43;101403.29;;;5.96;76.65
78615;BME280;67937;52.488;20.952;2023-05-07T03:10:12;101408.20;;;5.92;76.78
78615;BME280;67937;52.488;20.952;2023-05-07T03:12:40;101406.33;;;5.90;76.74
78615;BME280;67937;52.488;20.952;2023-05-07T03:15:09;101412.75;;;5.92;76.90
78615;BME280;67937;52.488;20.952;2023-05-07T03:17:38;101411.38;;;5.91;76.87
78615;BME280;67937;52.488;20.952;2023-05-07T03:20:07;101408.77;;;5.91;76.68
78615;BME280;67937;52.488;20.952;2023-05-07T03:22:35;101412.20;;;5.92;76.58
78615;BME280;67937;52.488;20.952;2023-05-07T03:25:04;101417.42;;;5.94;76.71
78615;BME280;67937;52.488;20.952;2023-05-07T03:27:32;101419.61;;;5.95;76.68
78615;BME280;67937;52.488;20.952;2023-05-07T03:30:00;101422.40;;;5.96;76.74
78615;BME280;67937;52.488;20.952;2023-05-07T03:32:28;101429.23;;;5.96;76.71
78615;BME280;67937;52.488;20.952;2023-05-07T03:34:56;101430.60;;;5.96;76.75
78615;BME280;67937;52.488;20.952;2023-05-07T03:37:24;101434.07;;;5.97;76.80
78615;BME280;67937;52.488;20.952;2023-05-07T03:39:52;101438.86;;;5.96;76.73
78615;BME280;67937;52.488;20.952;2023-05-07T03:42:20;101438.86;;;5.96;76.72
78615;BME280;67937;52.488;20.952;2023-05-07T03:44:48;101442.45;;;5.97;76.85
78615;BME280;67937;52.488;20.952;2023-05-07T03:47:16;101444.52;;;5.99;76.67
78615;BME280;67937;52.488;20.952;2023-05-07T03:49:44;101442.42;;;5.98;76.59
78615;BME280;67937;52.488;20.952;2023-05-07T03:52:13;101445.82;;;5.97;76.56
78615;BME280;67937;52.488;20.952;2023-05-07T03:54:41;101446.84;;;5.98;76.25
78615;BME280;67937;52.488;20.952;2023-05-07T03:57:09;101451.66;;;5.95;76.17
78615;BME280;67937;52.488;20.952;2023-05-07T03:59:38;101460.99;;;5.94;76.27
78615;BME280;67937;52.488;20.952;2023-05-07T04:02:06;101466.86;;;5.96;76.64
78615;BME280;67937;52.488;20.952;2023-05-07T04:04:34;101466.94;;;5.94;76.70
78615;BME280;67937;52.488;20.952;2023-05-07T04:07:02;101468.56;;;5.94;76.87
78615;BME280;67937;52.488;20.952;2023-05-07T04:09:30;101468.44;;;5.96;76.80
78615;BME280;67937;52.488;20.952;2023-05-07T04:11:58;101473.00;;;5.96;76.98
78615;BME280;67937;52.488;20.952;2023-05-07T04:14:27;101474.96;;;5.95;76.98
78615;BME280;67937;52.488;20.952;2023-05-07T04:16:56;101476.80;;;5.97;76.93
78615;BME280;67937;52.488;20.952;2023-05-07T04:19:25;101480.77;;;5.99;76.80
78615;BME280;67937;52.488;20.952;2023-05-07T04:21:53;101481.23;;;6.01;77.06
78615;BME280;67937;52.488;20.952;2023-05-07T04:24:21;101481.30;;;6.03;77.01
78615;BME280;67937;52.488;20.952;2023-05-07T04:26:49;101485.68;;;6.03;77.07
78615;BME280;67937;52.488;20.952;2023-05-07T04:29:17;101482.90;;;6.02;77.06
78615;BME280;67937;52.488;20.952;2023-05-07T04:31:45;101483.85;;;6.05;76.99
78615;BME280;67937;52.488;20.952;2023-05-07T04:34:13;101488.75;;;6.05;77.01
78615;BME280;67937;52.488;20.952;2023-05-07T04:36:42;101486.04;;;6.07;76.90
78615;BME280;67937;52.488;20.952;2023-05-07T04:39:10;101486.36;;;6.07;77.03
78615;BME280;67937;52.488;20.952;2023-05-07T04:41:38;101489.21;;;6.10;76.88
78615;BME280;67937;52.488;20.952;2023-05-07T04:44:07;101491.83;;;6.10;76.67
78615;BME280;67937;52.488;20.952;2023-05-07T04:46:35;101493.16;;;6.08;76.76
78615;BME280;67937;52.488;20.952;2023-05-07T04:49:03;101492.09;;;6.09;76.74
78615;BME280;67937;52.488;20.952;2023-05-07T04:51:32;101493.26;;;6.10;76.90
78615;BME280;67937;52.488;20.952;2023-05-07T04:54:00;101493.38;;;6.11;76.89
78615;BME280;67937;52.488;20.952;2023-05-07T04:56:28;101496.84;;;6.12;76.94
78615;BME280;67937;52.488;20.952;2023-05-07T04:58:57;101498.34;;;6.14;76.99
78615;BME280;67937;52.488;20.952;2023-05-07T05:01:25;101496.61;;;6.17;76.99
78615;BME280;67937;52.488;20.952;2023-05-07T05:03:53;101499.31;;;6.20;76.89
78615;BME280;67937;52.488;20.952;2023-05-07T05:06:21;101501.30;;;6.23;76.88
78615;BME280;67937;52.488;20.952;2023-05-07T05:08:49;101505.02;;;6.26;76.74
78615;BME280;67937;52.488;20.952;2023-05-07T05:11:17;101503.63;;;6.30;76.90
78615;BME280;67937;52.488;20.952;2023-05-07T05:13:45;101502.42;;;6.33;76.88
78615;BME280;67937;52.488;20.952;2023-05-07T05:16:15;101509.42;;;6.37;77.06
78615;BME280;67937;52.488;20.952;2023-05-07T05:18:43;101507.45;;;6.42;76.82
78615;BME280;67937;52.488;20.952;2023-05-07T05:21:11;101512.92;;;6.45;76.80
78615;BME280;67937;52.488;20.952;2023-05-07T05:23:39;101515.70;;;6.50;76.66
78615;BME280;67937;52.488;20.952;2023-05-07T05:26:07;101520.86;;;6.57;76.64
78615;BME280;67937;52.488;20.952;2023-05-07T05:28:35;101518.77;;;6.60;76.53
78615;BME280;67937;52.488;20.952;2023-05-07T05:31:04;101525.36;;;6.62;76.47
78615;BME280;67937;52.488;20.952;2023-05-07T05:33:32;101523.11;;;6.65;76.53
78615;BME280;67937;52.488;20.952;2023-05-07T05:36:00;101526.20;;;6.66;76.44
78615;BME280;67937;52.488;20.952;2023-05-07T05:38:28;101524.23;;;6.67;76.28
78615;BME280;67937;52.488;20.952;2023-05-07T05:40:56;101527.00;;;6.68;76.23
78615;BME280;67937;52.488;20.952;2023-05-07T05:43:24;101526.34;;;6.67;76.21
78615;BME280;67937;52.488;20.952;2023-05-07T05:45:53;101526.83;;;6.64;76.13
78615;BME280;67937;52.488;20.952;2023-05-07T05:48:21;101533.56;;;6.62;76.21
78615;BME280;67937;52.488;20.952;2023-05-07T05:50:49;101536.88;;;6.63;76.11
78615;BME280;67937;52.488;20.952;2023-05-07T05:53:17;101534.09;;;6.67;75.88
78615;BME280;67937;52.488;20.952;2023-05-07T05:55:46;101534.04;;;6.67;75.85
78615;BME280;67937;52.488;20.952;2023-05-07T05:58:14;101536.95;;;6.73;75.70
78615;BME280;67937;52.488;20.952;2023-05-07T06:00:43;101538.40;;;6.88;75.44
78615;BME280;67937;52.488;20.952;2023-05-07T06:03:11;101544.59;;;7.06;75.04
78615;BME280;67937;52.488;20.952;2023-05-07T06:05:39;101543.83;;;7.15;74.71
78615;BME280;67937;52.488;20.952;2023-05-07T06:08:07;101547.50;;;7.19;74.70
78615;BME280;67937;52.488;20.952;2023-05-07T06:10:37;101552.20;;;7.23;74.51
78615;BME280;67937;52.488;20.952;2023-05-07T06:13:05;101553.88;;;7.21;74.81
78615;BME280;67937;52.488;20.952;2023-05-07T06:15:33;101552.88;;;7.20;74.83
78615;BME280;67937;52.488;20.952;2023-05-07T06:18:01;101557.36;;;7.22;74.47
78615;BME280;67937;52.488;20.952;2023-05-07T06:20:29;101556.14;;;7.29;74.56
78615;BME280;67937;52.488;20.952;2023-05-07T06:22:57;101561.12;;;7.43;74.21
78615;BME280;67937;52.488;20.952;2023-05-07T06:25:25;101560.82;;;7.53;73.99
78615;BME280;67937;52.488;20.952;2023-05-07T06:27:53;101559.42;;;7.64;73.85
78615;BME280;67937;52.488;20.952;2023-05-07T06:30:21;101558.05;;;7.77;73.25
78615;BME280;67937;52.488;20.952;2023-05-07T06:32:49;101561.02;;;7.89;73.19
78615;BME280;67937;52.488;20.952;2023-05-07T06:35:18;101561.18;;;8.07;72.98
78615;BME280;67937;52.488;20.952;2023-05-07T06:37:46;101559.10;;;8.10;72.94
78615;BME280;67937;52.488;20.952;2023-05-07T06:40:14;101560.31;;;8.14;72.88
78615;BME280;67937;52.488;20.952;2023-05-07T06:42:43;101560.02;;;8.16;72.41
78615;BME280;67937;52.488;20.952;2023-05-07T06:45:11;101560.04;;;8.16;71.95
78615;BME280;67937;52.488;20.952;2023-05-07T06:47:39;101563.30;;;8.17;71.82
78615;BME280;67937;52.488;20.952;2023-05-07T06:50:07;101557.86;;;8.21;71.66
78615;BME280;67937;52.488;20.952;2023-05-07T06:52:36;101557.95;;;8.23;71.97
78615;BME280;67937;52.488;20.952;2023-05-07T06:55:04;101561.89;;;8.32;72.11
78615;BME280;67937;52.488;20.952;2023-05-07T06:57:32;101558.88;;;8.43;72.02
78615;BME280;67937;52.488;20.952;2023-05-07T07:00:01;101563.66;;;8.56;71.65
78615;BME280;67937;52.488;20.952;2023-05-07T07:02:29;101564.52;;;8.63;70.93
78615;BME280;67937;52.488;20.952;2023-05-07T07:04:57;101571.98;;;8.61;70.11
78615;BME280;67937;52.488;20.952;2023-05-07T07:07:25;101570.85;;;8.69;70.31
78615;BME280;67937;52.488;20.952;2023-05-07T07:09:53;101572.02;;;8.84;70.00
78615;BME280;67937;52.488;20.952;2023-05-07T07:12:22;101572.80;;;8.92;70.01
78615;BME280;67937;52.488;20.952;2023-05-07T07:14:52;101576.17;;;8.98;69.67
78615;BME280;67937;52.488;20.952;2023-05-07T07:17:21;101574.04;;;9.09;68.95
78615;BME280;67937;52.488;20.952;2023-05-07T07:19:49;101581.39;;;9.13;69.24
78615;BME280;67937;52.488;20.952;2023-05-07T07:22:17;101581.07;;;9.16;69.01
78615;BME280;67937;52.488;20.952;2023-05-07T07:24:45;101577.95;;;9.18;68.53
78615;BME280;67937;52.488;20.952;2023-05-07T07:27:13;101573.63;;;9.16;68.72
78615;BME280;67937;52.488;20.952;2023-05-07T07:29:41;101572.05;;;9.23;68.25
78615;BME280;67937;52.488;20.952;2023-05-07T07:32:10;101581.02;;;9.23;68.44
78615;BME280;67937;52.488;20.952;2023-05-07T07:34:38;101585.39;;;9.33;68.36
78615;BME280;67937;52.488;20.952;2023-05-07T07:37:06;101591.42;;;9.61;67.61
78615;BME280;67937;52.488;20.952;2023-05-07T07:39:35;101593.80;;;9.69;67.38
78615;BME280;67937;52.488;20.952;2023-05-07T07:42:04;101601.30;;;9.79;67.41
78615;BME280;67937;52.488;20.952;2023-05-07T07:44:32;101600.95;;;9.86;66.43
78615;BME280;67937;52.488;20.952;2023-05-07T07:47:00;101598.53;;;9.91;65.71
78615;BME280;67937;52.488;20.952;2023-05-07T07:49:28;101601.39;;;9.90;66.14
78615;BME280;67937;52.488;20.952;2023-05-07T07:51:56;101600.41;;;9.95;65.89
78615;BME280;67937;52.488;20.952;2023-05-07T07:54:26;101596.96;;;10.00;66.11
78615;BME280;67937;52.488;20.952;2023-05-07T07:56:54;101596.74;;;10.14;65.70
78615;BME280;67937;52.488;20.952;2023-05-07T07:59:22;101599.66;;;10.09;66.06
78615;BME280;67937;52.488;20.952;2023-05-07T08:01:50;101596.56;;;10.07;65.97
78615;BME280;67937;52.488;20.952;2023-05-07T08:04:20;101603.66;;;10.03;65.93
78615;BME280;67937;52.488;20.952;2023-05-07T08:06:48;101601.92;;;10.09;64.90
78615;BME280;67937;52.488;20.952;2023-05-07T08:09:16;101603.92;;;10.11;65.19
78615;BME280;67937;52.488;20.952;2023-05-07T08:11:44;101606.33;;;10.21;65.05
78615;BME280;67937;52.488;20.952;2023-05-07T08:14:12;101607.13;;;10.20;64.86
78615;BME280;67937;52.488;20.952;2023-05-07T08:16:42;101607.16;;;10.22;65.00
78615;BME280;67937;52.488;20.952;2023-05-07T08:19:10;101615.26;;;10.35;64.11
78615;BME280;67937;52.488;20.952;2023-05-07T08:21:39;101611.32;;;10.45;63.17
78615;BME280;67937;52.488;20.952;2023-05-07T08:24:07;101615.60;;;10.50;62.34
78615;BME280;67937;52.488;20.952;2023-05-07T08:26:35;101616.14;;;10.53;60.48
78615;BME280;67937;52.488;20.952;2023-05-07T08:29:05;101616.59;;;10.33;62.16
78615;BME280;67937;52.488;20.952;2023-05-07T08:31:34;101619.42;;;10.36;62.55
78615;BME280;67937;52.488;20.952;2023-05-07T08:34:03;101617.46;;;10.49;62.42
78615;BME280;67937;52.488;20.952;2023-05-07T08:36:31;101619.84;;;10.59;62.63
78615;BME280;67937;52.488;20.952;2023-05-07T08:39:00;101622.27;;;10.63;62.65
78615;BME280;67937;52.488;20.952;2023-05-07T08:41:29;101621.95;;;10.74;62.79
78615;BME280;67937;52.488;20.952;2023-05-07T08:43:59;101622.61;;;10.86;62.95
78615;BME280;67937;52.488;20.952;2023-05-07T08:46:31;101619.62;;;11.04;62.73
78615;BME280;67937;52.488;20.952;2023-05-07T08:48:59;101618.91;;;11.12;61.84
78615;BME280;67937;52.488;20.952;2023-05-07T08:51:27;101617.56;;;11.00;61.55
78615;BME280;67937;52.488;20.952;2023-05-07T08:53:56;101619.45;;;10.86;62.45
78615;BME280;67937;52.488;20.952;2023-05-07T08:56:24;101625.73;;;10.90;60.87
78615;BME280;67937;52.488;20.952;2023-05-07T08:58:52;101625.68;;;10.77;61.27
78615;BME280;67937;52.488;20.952;2023-05-07T09:01:22;101617.23;;;10.96;62.20
78615;BME280;67937;52.488;20.952;2023-05-07T09:03:51;101625.10;;;11.03;62.04
78615;BME280;67937;52.488;20.952;2023-05-07T09:06:21;101625.77;;;11.27;61.15
78615;BME280;67937;52.488;20.952;2023-05-07T09:08:51;101621.48;;;11.53;60.81
78615;BME280;67937;52.488;20.952;2023-05-07T09:11:21;101619.84;;;11.82;58.91
78615;BME280;67937;52.488;20.952;2023-05-07T09:13:54;101622.96;;;12.12;57.46
78615;BME280;67937;52.488;20.952;2023-05-07T09:16:25;101616.56;;;12.26;57.34
78615;BME280;67937;52.488;20.952;2023-05-07T09:18:54;101616.95;;;12.54;54.57
78615;BME280;67937;52.488;20.952;2023-05-07T09:21:23;101619.45;;;12.54;55.75
78615;BME280;67937;52.488;20.952;2023-05-07T09:23:52;101627.98;;;12.61;55.32
78615;BME280;67937;52.488;20.952;2023-05-07T09:26:22;101625.30;;;12.72;54.18
78615;BME280;67937;52.488;20.952;2023-05-07T09:28:51;101626.89;;;12.77;54.67
78615;BME280;67937;52.488;20.952;2023-05-07T09:31:20;101626.27;;;12.81;55.44
78615;BME280;67937;52.488;20.952;2023-05-07T09:33:49;101622.35;;;12.98;56.26
78615;BME280;67937;52.488;20.952;2023-05-07T09:36:18;101625.31;;;13.24;53.00
78615;BME280;67937;52.488;20.952;2023-05-07T09:38:46;101618.77;;;13.21;53.70
78615;BME280;67937;52.488;20.952;2023-05-07T09:41:14;101624.40;;;13.32;52.73
78615;BME280;67937;52.488;20.952;2023-05-07T09:43:42;101620.89;;;13.36;53.73
78615;BME280;67937;52.488;20.952;2023-05-07T09:46:14;101623.77;;;13.33;53.52
78615;BME280;67937;52.488;20.952;2023-05-07T09:48:44;101629.52;;;13.39;53.86
78615;BME280;67937;52.488;20.952;2023-05-07T09:51:58;101635.16;;;13.45;51.73
78615;BME280;67937;52.488;20.952;2023-05-07T09:54:07;101625.94;;;13.35;53.80
78615;BME280;67937;52.488;20.952;2023-05-07T09:56:35;101632.98;;;13.48;53.68
78615;BME280;67937;52.488;20.952;2023-05-07T09:59:05;101633.02;;;13.65;52.54
78615;BME280;67937;52.488;20.952;2023-05-07T10:01:36;101634.50;;;13.71;51.81
78615;BME280;67937;52.488;20.952;2023-05-07T10:04:05;101637.55;;;13.71;51.22
78615;BME280;67937;52.488;20.952;2023-05-07T10:06:35;101642.36;;;13.58;51.29
78615;BME280;67937;52.488;20.952;2023-05-07T10:09:05;101644.52;;;13.41;52.59
78615;BME280;67937;52.488;20.952;2023-05-07T10:11:37;101642.77;;;13.30;53.27
78615;BME280;67937;52.488;20.952;2023-05-07T10:14:05;101640.86;;;13.30;54.21
78615;BME280;67937;52.488;20.952;2023-05-07T10:16:35;101649.27;;;13.49;52.10
78615;BME280;67937;52.488;20.952;2023-05-07T10:19:04;101646.23;;;13.39;51.27
78615;BME280;67937;52.488;20.952;2023-05-07T10:21:36;101650.06;;;13.17;51.59
78615;BME280;67937;52.488;20.952;2023-05-07T10:26:37;101652.27;;;12.92;52.86
78615;BME280;67937;52.488;20.952;2023-05-07T10:29:12;101652.05;;;12.75;51.96
78615;BME280;67937;52.488;20.952;2023-05-07T10:32:25;101653.63;;;12.59;52.99
78615;BME280;67937;52.488;20.952;2023-05-07T10:35:01;101654.42;;;12.61;53.56
78615;BME280;67937;52.488;20.952;2023-05-07T10:37:30;101649.01;;;12.65;53.62
78615;BME280;67937;52.488;20.952;2023-05-07T10:39:59;101650.08;;;12.57;53.96
78615;BME280;67937;52.488;20.952;2023-05-07T10:42:27;101650.77;;;12.57;54.04
78615;BME280;67937;52.488;20.952;2023-05-07T10:44:55;101652.86;;;12.55;54.19
78615;BME280;67937;52.488;20.952;2023-05-07T10:47:23;101652.29;;;12.48;54.28
78615;BME280;67937;52.488;20.952;2023-05-07T10:52:24;101657.48;;;12.33;54.17
78615;BME280;67937;52.488;20.952;2023-05-07T10:55:24;101659.17;;;12.32;53.87
78615;BME280;67937;52.488;20.952;2023-05-07T10:57:52;101661.25;;;12.19;54.20
78615;BME280;67937;52.488;20.952;2023-05-07T11:03:04;101661.02;;;12.44;53.11
78615;BME280;67937;52.488;20.952;2023-05-07T11:05:33;101663.72;;;12.38;51.96
78615;BME280;67937;52.488;20.952;2023-05-07T11:08:03;101662.98;;;12.52;53.28
78615;BME280;67937;52.488;20.952;2023-05-07T11:10:50;101657.77;;;13.06;52.67
78615;BME280;67937;52.488;20.952;2023-05-07T11:13:48;101658.43;;;13.47;52.68
78615;BME280;67937;52.488;20.952;2023-05-07T11:16:21;101659.42;;;13.65;51.19
78615;BME280;67937;52.488;20.952;2023-05-07T11:18:54;101661.96;;;13.55;50.41
78615;BME280;67937;52.488;20.952;2023-05-07T11:21:32;101664.22;;;13.43;49.79
78615;BME280;67937;52.488;20.952;2023-05-07T11:24:02;101662.38;;;13.23;50.26
78615;BME280;67937;52.488;20.952;2023-05-07T11:26:41;101665.40;;;13.26;50.10
78615;BME280;67937;52.488;20.952;2023-05-07T11:29:18;101667.60;;;13.30;49.06
78615;BME280;67937;52.488;20.952;2023-05-07T11:31:51;101668.35;;;13.14;49.56
78615;BME280;67937;52.488;20.952;2023-05-07T11:34:24;101675.56;;;13.17;50.02
78615;BME280;67937;52.488;20.952;2023-05-07T11:36:53;101677.90;;;13.12;50.83
78615;BME280;67937;52.488;20.952;2023-05-07T11:39:32;101680.05;;;13.27;49.48
78615;BME280;67937;52.488;20.952;2023-05-07T11:42:02;101676.14;;;13.22;50.06
78615;BME280;67937;52.488;20.952;2023-05-07T11:44:45;101679.81;;;13.20;49.85
78615;BME280;67937;52.488;20.952;2023-05-07T11:47:18;101675.23;;;13.02;51.07
78615;BME280;67937;52.488;20.952;2023-05-07T11:49:53;101682.45;;;13.18;49.75
78615;BME280;67937;52.488;20.952;2023-05-07T11:52:23;101686.89;;;12.91;50.27
78615;BME280;67937;52.488;20.952;2023-05-07T11:54:56;101685.66;;;12.83;51.40
78615;BME280;67937;52.488;20.952;2023-05-07T11:57:25;101686.02;;;12.86;51.43
78615;BME280;67937;52.488;20.952;2023-05-07T11:59:58;101686.67;;;12.97;51.26
78615;BME280;67937;52.488;20.952;2023-05-07T12:02:27;101693.23;;;13.13;51.61
78615;BME280;67937;52.488;20.952;2023-05-07T12:04:56;101691.69;;;13.15;51.77
78615;BME280;67937;52.488;20.952;2023-05-07T12:07:24;101688.30;;;13.18;52.04
78615;BME280;67937;52.488;20.952;2023-05-07T12:09:53;101692.27;;;13.22;51.25
78615;BME280;67937;52.488;20.952;2023-05-07T12:12:21;101694.55;;;13.12;50.39
78615;BME280;67937;52.488;20.952;2023-05-07T12:14:50;101695.41;;;13.02;50.81
78615;BME280;67937;52.488;20.952;2023-05-07T12:17:18;101692.36;;;13.08;50.90
78615;BME280;67937;52.488;20.952;2023-05-07T12:19:46;101693.46;;;13.02;51.65
78615;BME280;67937;52.488;20.952;2023-05-07T12:22:15;101694.73;;;13.10;51.95
78615;BME280;67937;52.488;20.952;2023-05-07T12:24:47;101694.63;;;13.26;51.86
78615;BME280;67937;52.488;20.952;2023-05-07T12:27:16;101695.20;;;13.38;52.58
78615;BME280;67937;52.488;20.952;2023-05-07T12:29:46;101695.47;;;13.67;51.40
78615;BME280;67937;52.488;20.952;2023-05-07T12:32:19;101694.42;;;13.69;48.65
78615;BME280;67937;52.488;20.952;2023-05-07T12:34:51;101691.70;;;13.35;50.97
78615;BME280;67937;52.488;20.952;2023-05-07T12:37:24;101698.16;;;13.24;51.77
78615;BME280;67937;52.488;20.952;2023-05-07T12:40:06;101699.17;;;13.15;52.16
78615;BME280;67937;52.488;20.952;2023-05-07T12:42:39;101699.69;;;13.12;51.88
78615;BME280;67937;52.488;20.952;2023-05-07T12:45:11;101702.86;;;12.96;50.79
78615;BME280;67937;52.488;20.952;2023-05-07T12:47:43;101703.80;;;12.77;50.55
78615;BME280;67937;52.488;20.952;2023-05-07T12:50:13;101693.88;;;12.66;50.16
78615;BME280;67937;52.488;20.952;2023-05-07T12:52:46;101697.45;;;12.55;51.73
78615;BME280;67937;52.488;20.952;2023-05-07T12:55:16;101691.95;;;13.01;50.64
78615;BME280;67937;52.488;20.952;2023-05-07T12:57:51;101688.39;;;13.32;50.24
78615;BME280;67937;52.488;20.952;2023-05-07T13:00:38;101686.91;;;13.55;49.90
78615;BME280;67937;52.488;20.952;2023-05-07T13:03:06;101686.95;;;13.67;50.53
78615;BME280;67937;52.488;20.952;2023-05-07T13:05:35;101687.33;;;13.94;50.68